createdAt,value
2023-05-07T00:02:21.987Z,98659.88
2023-05-07T00:04:50.057Z,98658.91
2023-05-07T00:07:17.083Z,98646.91
2023-05-07T00:09:44.401Z,98641.78
2023-05-07T00:12:11.675Z,98650.91
2023-05-07T00:14:38.581Z,98645.16
2023-05-07T00:17:05.410Z,98644.69
2023-05-07T00:19:34.931Z,98638.63
2023-05-07T00:22:01.965Z,98635.38
2023-05-07T00:24:28.797Z,98627.88
2023-05-07T00:26:59.074Z,98625.44
2023-05-07T00:29:26.137Z,98627.84
2023-05-07T00:31:54.876Z,98631.72
2023-05-07T00:34:21.694Z,98637.16
2023-05-07T00:36:48.649Z,98629.63
2023-05-07T00:39:15.912Z,98626.59
2023-05-07T00:41:43.079Z,98635.56
2023-05-07T00:44:09.792Z,98635.59
2023-05-07T00:46:39.283Z,98629.03
2023-05-07T00:49:07.164Z,98628.53
2023-05-07T00:51:35.128Z,98627.88
2023-05-07T00:54:04.084Z,98623.38
2023-05-07T00:56:32.553Z,98625.03
2023-05-07T00:58:59.647Z,98618.59
2023-05-07T01:01:27.614Z,98615.72
2023-05-07T01:03:54.903Z,98618.28
2023-05-07T01:06:25.807Z,98619.09
2023-05-07T01:08:54.066Z,98621.63
2023-05-07T01:11:22.656Z,98622.13
2023-05-07T01:13:54.716Z,98615.22
2023-05-07T01:16:22.439Z,98624.84
2023-05-07T01:18:52.042Z,98629.47
2023-05-07T01:21:19.892Z,98627.25
2023-05-07T01:23:48.350Z,98618.28
2023-05-07T01:26:15.694Z,98611.06
2023-05-07T01:28:56.537Z,98614.44
2023-05-07T01:31:26.369Z,98608.34
2023-05-07T01:33:55.106Z,98620.53
2023-05-07T01:36:26.884Z,98624.06
2023-05-07T01:38:54.216Z,98617.94
2023-05-07T01:41:21.924Z,98613.78
2023-05-07T01:43:51.093Z,98620.19
2023-05-07T01:46:20.072Z,98618.59
2023-05-07T01:48:47.732Z,98619.25
2023-05-07T01:51:14.515Z,98616.34
2023-05-07T01:53:45.053Z,98616.81
2023-05-07T01:56:12.112Z,98612.50
2023-05-07T01:58:39.178Z,98609.97
2023-05-07T02:01:05.987Z,98612.66
2023-05-07T02:03:32.802Z,98604.50
2023-05-07T02:05:59.633Z,98616.84
2023-05-07T02:08:26.410Z,98605.78
2023-05-07T02:10:54.817Z,98617.00
2023-05-07T02:13:23.445Z,98619.56
2023-05-07T02:15:51.933Z,98625.00
2023-05-07T02:18:19.121Z,98621.63
2023-05-07T02:20:46.014Z,98617.16
2023-05-07T02:23:12.835Z,98618.28
2023-05-07T02:25:39.621Z,98619.72
2023-05-07T02:28:06.798Z,98620.34
2023-05-07T02:30:38.625Z,98618.28
2023-05-07T02:33:05.641Z,98619.38
2023-05-07T02:35:32.901Z,98619.53
2023-05-07T02:37:59.689Z,98619.22
2023-05-07T02:40:26.537Z,98608.00
2023-05-07T02:42:53.271Z,98616.16
2023-05-07T02:45:20.035Z,98613.44
2023-05-07T02:47:47.474Z,98614.41
2023-05-07T02:50:14.486Z,98623.22
2023-05-07T02:52:43.838Z,98616.81
2023-05-07T02:55:10.850Z,98616.19
2023-05-07T02:57:37.688Z,98606.88
2023-05-07T03:00:20.177Z,98603.19
2023-05-07T03:02:47.486Z,98604.47
2023-05-07T03:05:15.537Z,98599.06
2023-05-07T03:07:46.177Z,98596.16
2023-05-07T03:10:13.277Z,98602.41
2023-05-07T03:12:40.496Z,98596.66
2023-05-07T03:15:08.241Z,98594.06
2023-05-07T03:17:35.038Z,98598.22
2023-05-07T03:20:01.892Z,98590.53
2023-05-07T03:22:31.167Z,98587.31
2023-05-07T03:24:58.156Z,98591.47
2023-05-07T03:27:25.004Z,98589.72
2023-05-07T03:29:51.828Z,98591.50
2023-05-07T03:32:18.685Z,98592.63
2023-05-07T03:34:45.418Z,98589.56
2023-05-07T03:37:12.372Z,98588.75
2023-05-07T03:39:39.228Z,98594.69
2023-05-07T03:42:06.153Z,98589.41
2023-05-07T03:44:32.965Z,98588.31
2023-05-07T03:46:59.847Z,98591.97
2023-05-07T03:49:29.727Z,98590.69
2023-05-07T03:51:56.719Z,98596.78
2023-05-07T03:54:26.264Z,98595.16
2023-05-07T03:56:54.224Z,98598.19
2023-05-07T03:59:21.061Z,98599.47
2023-05-07T04:01:48.020Z,98595.00
2023-05-07T04:04:15.293Z,98597.06
2023-05-07T04:06:42.217Z,98608.78
2023-05-07T04:09:09.422Z,98604.44
2023-05-07T04:11:37.090Z,98606.69
2023-05-07T04:14:03.895Z,98602.66
2023-05-07T04:16:30.825Z,98602.34
2023-05-07T04:18:57.598Z,98609.25
2023-05-07T04:21:24.556Z,98609.09
2023-05-07T04:23:51.889Z,98617.25
2023-05-07T04:26:18.655Z,98613.25
2023-05-07T04:28:45.769Z,98616.63
2023-05-07T04:31:12.597Z,98625.91
2023-05-07T04:33:39.756Z,98618.56
2023-05-07T04:36:06.734Z,98621.09
2023-05-07T04:38:33.595Z,98613.56
2023-05-07T04:41:07.809Z,98611.50
2023-05-07T04:43:37.127Z,98615.00
2023-05-07T04:46:04.172Z,98619.81
2023-05-07T04:48:31.129Z,98608.09
2023-05-07T04:51:00.645Z,98616.25
2023-05-07T04:53:27.484Z,98617.72
2023-05-07T04:55:58.597Z,98626.06
2023-05-07T04:58:25.651Z,98617.56
2023-05-07T05:00:52.777Z,98624.75
2023-05-07T05:03:19.775Z,98623.34
2023-05-07T05:05:46.902Z,98627.69
2023-05-07T05:08:13.812Z,98625.78
2023-05-07T05:10:41.891Z,98630.59
2023-05-07T05:13:09.296Z,98628.34
2023-05-07T05:15:36.570Z,98633.94
2023-05-07T05:18:03.584Z,98639.91
2023-05-07T05:20:30.737Z,98634.13
2023-05-07T05:22:57.527Z,98645.97
2023-05-07T05:25:24.363Z,98651.63
2023-05-07T05:27:51.609Z,98646.31
2023-05-07T05:30:18.374Z,98649.03
2023-05-07T05:32:45.162Z,98653.22
2023-05-07T05:35:12.213Z,98662.19
2023-05-07T05:37:41.661Z,98657.88
2023-05-07T05:40:09.240Z,98646.63
2023-05-07T05:42:36.214Z,98641.19
2023-05-07T05:45:03.118Z,98634.13
2023-05-07T05:47:30.883Z,98634.75
2023-05-07T05:49:58.080Z,98640.50
2023-05-07T05:52:25.186Z,98646.91
2023-05-07T05:54:54.556Z,98655.72
2023-05-07T05:57:21.560Z,98657.31
2023-05-07T05:59:48.590Z,98658.09
2023-05-07T06:02:15.641Z,98656.50
2023-05-07T06:04:43.589Z,98656.50
2023-05-07T06:07:11.546Z,98653.13
2023-05-07T06:09:38.573Z,98654.34
2023-05-07T06:12:05.612Z,98646.28
2023-05-07T06:14:32.563Z,98648.66
2023-05-07T06:16:59.438Z,98645.06
2023-05-07T06:19:27.624Z,98644.22
2023-05-07T06:21:54.644Z,98637.41
2023-05-07T06:24:21.605Z,98639.78
2023-05-07T06:26:48.438Z,98654.19
2023-05-07T06:29:15.561Z,98655.06
2023-05-07T06:31:42.574Z,98644.22
2023-05-07T06:34:15.213Z,98640.72
2023-05-07T06:36:42.636Z,98639.22
2023-05-07T06:39:09.784Z,98637.78
2023-05-07T06:41:36.717Z,98644.56
2023-05-07T06:44:04.330Z,98653.56
2023-05-07T06:46:31.737Z,98647.06
2023-05-07T06:48:58.630Z,98639.78
2023-05-07T06:51:25.444Z,98642.75
2023-05-07T06:53:52.185Z,98628.63
2023-05-07T06:56:19.649Z,98631.78
2023-05-07T06:58:46.714Z,98627.31
2023-05-07T07:01:13.704Z,98629.44
2023-05-07T07:03:41.269Z,98639.75
2023-05-07T07:06:08.866Z,98631.59
2023-05-07T07:08:35.761Z,98639.75
2023-05-07T07:11:02.561Z,98635.25
2023-05-07T07:13:29.838Z,98637.03
2023-05-07T07:15:56.741Z,98637.13
2023-05-07T07:18:23.733Z,98649.00
2023-05-07T07:20:50.674Z,98647.84
2023-05-07T07:23:17.469Z,98644.41
2023-05-07T07:25:44.326Z,98638.56
2023-05-07T07:28:11.892Z,98650.06
2023-05-07T07:30:39.765Z,98649.41
2023-05-07T07:33:06.889Z,98647.53
2023-05-07T07:35:34.129Z,98654.72
2023-05-07T07:38:01.220Z,98648.59
2023-05-07T07:40:28.870Z,98651.44
2023-05-07T07:42:56.301Z,98650.75
2023-05-07T07:45:23.283Z,98657.47
2023-05-07T07:47:50.193Z,98657.63
2023-05-07T07:50:31.772Z,98658.69
2023-05-07T07:53:03.037Z,98651.31
2023-05-07T07:55:31.958Z,98649.94
2023-05-07T07:57:58.873Z,98657.09
2023-05-07T08:00:25.724Z,98655.31
2023-05-07T08:02:52.769Z,98652.06
2023-05-07T08:05:19.951Z,98654.09
2023-05-07T08:07:47.950Z,98651.66
2023-05-07T08:10:22.371Z,98650.44
2023-05-07T08:12:52.725Z,98663.03
2023-05-07T08:15:20.022Z,98654.78
2023-05-07T08:17:46.887Z,98664.72
2023-05-07T08:20:14.956Z,98662.59
2023-05-07T08:22:41.818Z,98658.06
2023-05-07T08:25:10.816Z,98654.00
2023-05-07T08:27:37.633Z,98653.50
2023-05-07T08:30:05.773Z,98649.13
2023-05-07T08:32:32.743Z,98654.63
2023-05-07T08:34:59.533Z,98652.72
2023-05-07T08:37:26.368Z,98658.22
2023-05-07T08:39:53.279Z,98653.28
2023-05-07T08:42:24.089Z,98664.84
2023-05-07T08:44:55.614Z,98658.06
2023-05-07T08:47:29.764Z,98652.53
2023-05-07T08:49:56.748Z,98658.72
2023-05-07T08:52:23.748Z,98649.81
2023-05-07T08:54:52.050Z,98652.81
2023-05-07T08:57:20.840Z,98646.41
2023-05-07T08:59:47.616Z,98645.84
2023-05-07T09:02:14.422Z,98651.56
2023-05-07T09:04:41.329Z,98648.59
2023-05-07T09:07:08.130Z,98646.34
2023-05-07T09:09:35.087Z,98644.50
2023-05-07T09:12:02.956Z,98636.25
2023-05-07T09:14:29.976Z,98635.91
2023-05-07T09:16:57.986Z,98645.88
2023-05-07T09:19:26.053Z,98634.47
2023-05-07T09:22:02.028Z,98635.31
2023-05-07T09:24:35.812Z,98632.97
2023-05-07T09:27:03.714Z,98640.13
2023-05-07T09:29:34.036Z,98633.03
2023-05-07T09:32:00.916Z,98624.72
2023-05-07T09:34:27.835Z,98626.72
2023-05-07T09:37:18.743Z,98620.78
2023-05-07T09:42:51.870Z,98630.91
2023-05-07T09:45:41.573Z,98634.84
2023-05-07T09:48:15.916Z,98640.25
2023-05-07T09:50:57.389Z,98639.00
2023-05-07T09:55:53.710Z,98636.81
2023-05-07T09:58:21.606Z,98635.47
2023-05-07T10:00:51.340Z,98640.53
2023-05-07T10:03:20.242Z,98640.13
2023-05-07T10:05:48.724Z,98639.59
2023-05-07T10:08:17.871Z,98630.69
2023-05-07T10:10:46.184Z,98627.38
2023-05-07T10:13:13.684Z,98629.44
2023-05-07T10:15:42.210Z,98625.13
2023-05-07T10:18:11.081Z,98633.81
2023-05-07T10:20:40.454Z,98636.91
2023-05-07T10:23:13.778Z,98628.53
2023-05-07T10:25:40.714Z,98633.72
2023-05-07T10:28:11.151Z,98634.56
2023-05-07T10:31:19.508Z,98635.78
2023-05-07T10:33:52.132Z,98633.03
2023-05-07T10:36:19.772Z,98632.63
2023-05-07T10:38:47.544Z,98632.97
2023-05-07T10:41:16.156Z,98627.38
2023-05-07T10:43:46.847Z,98617.72
2023-05-07T10:46:20.445Z,98623.06
2023-05-07T10:49:13.832Z,98624.59
2023-05-07T10:51:41.179Z,98623.03
2023-05-07T10:54:28.299Z,98621.97
2023-05-07T10:56:55.555Z,98626.41
2023-05-07T10:59:23.705Z,98630.06
2023-05-07T11:02:00.965Z,98624.66
2023-05-07T11:04:28.844Z,98621.91
2023-05-07T11:07:09.249Z,98618.78
2023-05-07T11:09:54.544Z,98626.31
2023-05-07T11:12:36.974Z,98615.56
2023-05-07T11:15:13.529Z,98612.38
2023-05-07T11:17:59.067Z,98612.72
2023-05-07T11:20:49.927Z,98611.56
2023-05-07T11:23:35.655Z,98612.31
2023-05-07T11:26:11.968Z,98614.69
2023-05-07T11:28:44.362Z,98613.94
2023-05-07T11:31:12.691Z,98606.41
2023-05-07T11:33:39.739Z,98617.09
2023-05-07T11:36:09.192Z,98618.69
2023-05-07T11:38:39.618Z,98619.50
2023-05-07T11:41:06.756Z,98620.28
2023-05-07T11:43:36.447Z,98619.91
2023-05-07T11:46:12.690Z,98618.75
2023-05-07T11:48:40.490Z,98614.03
2023-05-07T11:51:13.823Z,98607.28
2023-05-07T11:53:43.646Z,98623.53
2023-05-07T11:56:17.676Z,98623.56
2023-05-07T11:58:47.107Z,98619.94
2023-05-07T12:01:16.624Z,98609.22
2023-05-07T12:03:48.370Z,98611.59
2023-05-07T12:06:17.730Z,98607.59
2023-05-07T12:08:48.571Z,98598.84
2023-05-07T12:11:26.368Z,98602.72
2023-05-07T12:13:58.891Z,98605.81
2023-05-07T12:16:26.933Z,98605.78
2023-05-07T12:18:56.138Z,98603.34
2023-05-07T12:21:24.262Z,98597.34
2023-05-07T12:23:51.850Z,98602.88
2023-05-07T12:26:22.223Z,98603.13
2023-05-07T12:28:49.097Z,98599.88
2023-05-07T12:31:17.105Z,98614.03
2023-05-07T12:33:44.407Z,98619.53
2023-05-07T12:36:14.346Z,98624.09
2023-05-07T12:38:41.928Z,98644.34
2023-05-07T12:41:13.355Z,98663.59
2023-05-07T12:43:40.394Z,98669.44
2023-05-07T12:46:10.844Z,98666.53
2023-05-07T12:48:39.622Z,98681.56
2023-05-07T12:51:07.538Z,98666.53
2023-05-07T12:53:42.429Z,98666.13
2023-05-07T12:56:10.658Z,98656.28
2023-05-07T12:58:38.281Z,98661.72
2023-05-07T13:01:08.203Z,98664.88
2023-05-07T13:03:38.441Z,98672.16
2023-05-07T13:06:11.529Z,98680.47
2023-05-07T13:08:43.680Z,98679.88
2023-05-07T13:11:13.074Z,98697.16
2023-05-07T13:13:42.369Z,98698.75
2023-05-07T13:16:12.044Z,98698.03
2023-05-07T13:18:41.423Z,98711.84
2023-05-07T13:21:08.511Z,98713.44
2023-05-07T13:23:35.414Z,98711.47
2023-05-07T13:26:08.443Z,98707.25
2023-05-07T13:28:38.495Z,98702.13
2023-05-07T13:31:05.278Z,98703.63
2023-05-07T13:33:32.093Z,98705.09
2023-05-07T13:36:01.432Z,98708.84
2023-05-07T13:38:28.487Z,98714.97
2023-05-07T13:40:55.393Z,98718.53
2023-05-07T13:43:22.176Z,98713.38
2023-05-07T13:45:49.698Z,98702.53
2023-05-07T13:48:16.547Z,98713.06
2023-05-07T13:50:43.350Z,98714.78
2023-05-07T13:53:10.254Z,98713.69
2023-05-07T13:55:37.083Z,98722.63
2023-05-07T13:58:07.080Z,98725.47
2023-05-07T14:00:34.480Z,98728.66
2023-05-07T14:03:01.446Z,98725.22
2023-05-07T14:05:31.427Z,98722.25
2023-05-07T14:07:59.208Z,98723.47
2023-05-07T14:10:26.306Z,98716.44
2023-05-07T14:12:53.654Z,98715.00
2023-05-07T14:15:20.728Z,98707.91
2023-05-07T14:17:48.000Z,98701.19
2023-05-07T14:20:15.234Z,98707.31
2023-05-07T14:22:42.339Z,98709.28
2023-05-07T14:25:10.718Z,98711.84
2023-05-07T14:27:37.687Z,98714.31
2023-05-07T14:30:04.953Z,98715.13
2023-05-07T14:32:31.871Z,98719.72
2023-05-07T14:34:58.743Z,98714.59
2023-05-07T14:37:26.027Z,98722.13
2023-05-07T14:39:53.070Z,98722.94
2023-05-07T14:42:19.918Z,98722.66
2023-05-07T14:44:49.202Z,98723.09
2023-05-07T14:47:19.008Z,98717.25
2023-05-07T14:49:50.072Z,98712.47
2023-05-07T14:52:16.902Z,98712.84
2023-05-07T14:54:43.996Z,98707.13
2023-05-07T14:57:14.447Z,98713.00
2023-05-07T14:59:42.361Z,98719.72
2023-05-07T15:02:12.640Z,98717.88
2023-05-07T15:04:46.672Z,98712.72
2023-05-07T15:07:16.834Z,98713.72
2023-05-07T15:09:45.056Z,98705.03
2023-05-07T15:12:12.798Z,98705.28
2023-05-07T15:14:40.414Z,98704.84
2023-05-07T15:17:08.469Z,98719.81
2023-05-07T15:19:35.786Z,98726.19
2023-05-07T15:22:05.593Z,98726.38
2023-05-07T15:24:32.725Z,98727.34
2023-05-07T15:27:00.127Z,98731.50
2023-05-07T15:29:27.373Z,98738.25
2023-05-07T15:31:55.493Z,98734.53
2023-05-07T15:34:24.914Z,98742.66
2023-05-07T15:36:51.846Z,98741.88
2023-05-07T15:39:18.802Z,98740.19
2023-05-07T15:41:46.099Z,98739.59
2023-05-07T15:44:13.287Z,98747.72
2023-05-07T15:46:43.222Z,98743.03
2023-05-07T15:49:13.945Z,98744.19
2023-05-07T15:51:47.572Z,98746.13
2023-05-07T15:54:14.736Z,98748.59
2023-05-07T15:56:41.899Z,98749.84
2023-05-07T15:59:17.522Z,98750.75
2023-05-07T16:01:46.419Z,98750.19
2023-05-07T16:04:13.210Z,98751.97
2023-05-07T16:06:40.056Z,98748.94
2023-05-07T16:09:06.909Z,98752.75
2023-05-07T16:11:34.110Z,98757.38
2023-05-07T16:14:03.565Z,98745.94
2023-05-07T16:16:37.931Z,98750.16
2023-05-07T16:19:05.048Z,98752.47
2023-05-07T16:21:32.748Z,98754.75
2023-05-07T16:23:59.684Z,98747.78
2023-05-07T16:26:26.770Z,98750.88
2023-05-07T16:28:54.035Z,98758.91
2023-05-07T16:31:20.883Z,98760.31
2023-05-07T16:33:47.704Z,98758.16
2023-05-07T16:36:14.581Z,98766.28
2023-05-07T16:38:42.753Z,98766.88
2023-05-07T16:41:10.539Z,98754.28
2023-05-07T16:43:37.360Z,98760.59
2023-05-07T16:46:04.285Z,98755.34
2023-05-07T16:48:31.104Z,98758.78
2023-05-07T16:50:58.904Z,98761.09
2023-05-07T16:53:26.479Z,98765.91
2023-05-07T16:55:56.410Z,98770.59
2023-05-07T16:58:23.502Z,98773.34
2023-05-07T17:00:51.333Z,98776.53
2023-05-07T17:03:21.138Z,98790.25
2023-05-07T17:05:48.218Z,98785.44
2023-05-07T17:08:15.214Z,98786.25
2023-05-07T17:10:42.443Z,98804.19
2023-05-07T17:13:09.463Z,98803.75
2023-05-07T17:15:36.451Z,98811.28
2023-05-07T17:18:03.534Z,98812.88
2023-05-07T17:20:30.376Z,98819.63
2023-05-07T17:22:57.495Z,98822.72
2023-05-07T17:25:24.446Z,98823.06
2023-05-07T17:27:51.897Z,98823.75
2023-05-07T17:30:19.224Z,98825.81
2023-05-07T17:32:46.165Z,98826.38
2023-05-07T17:35:12.997Z,98822.72
2023-05-07T17:37:40.168Z,98834.97
2023-05-07T17:40:07.942Z,98824.69
2023-05-07T17:42:37.405Z,98832.91
2023-05-07T17:45:04.635Z,98828.56
2023-05-07T17:47:31.968Z,98838.19
2023-05-07T17:49:59.922Z,98841.59
2023-05-07T17:52:30.481Z,98844.34
2023-05-07T17:54:57.236Z,98842.84
2023-05-07T17:57:24.055Z,98849.25
2023-05-07T17:59:50.869Z,98854.63
2023-05-07T18:02:17.807Z,98853.50
2023-05-07T18:04:44.894Z,98855.09
2023-05-07T18:07:11.831Z,98860.13
2023-05-07T18:09:38.651Z,98864.47
2023-05-07T18:12:05.804Z,98859.53
2023-05-07T18:14:32.656Z,98866.94
2023-05-07T18:16:59.706Z,98870.38
2023-05-07T18:19:27.934Z,98878.13
2023-05-07T18:21:57.374Z,98880.09
2023-05-07T18:24:25.190Z,98883.38
2023-05-07T18:26:52.002Z,98881.28
2023-05-07T18:29:18.908Z,98884.25
2023-05-07T18:31:46.048Z,98881.19
2023-05-07T18:34:14.185Z,98879.44
2023-05-07T18:36:41.163Z,98884.81
2023-05-07T18:39:08.832Z,98882.41
2023-05-07T18:41:39.567Z,98881.47
2023-05-07T18:44:07.328Z,98881.44
2023-05-07T18:46:34.229Z,98888.75
2023-05-07T18:49:01.334Z,98888.75
2023-05-07T18:51:28.434Z,98884.75
2023-05-07T18:53:55.373Z,98889.78
2023-05-07T18:56:22.248Z,98885.09
2023-05-07T18:58:51.337Z,98891.47
2023-05-07T19:01:18.751Z,98891.03
2023-05-07T19:03:45.665Z,98890.34
2023-05-07T19:06:12.658Z,98890.09
2023-05-07T19:08:42.671Z,98887.22
2023-05-07T19:11:09.669Z,98896.25
2023-05-07T19:13:36.844Z,98891.56
2023-05-07T19:16:05.524Z,98889.50
2023-05-07T19:18:32.723Z,98895.63
2023-05-07T19:20:59.491Z,98895.53
2023-05-07T19:23:26.503Z,98901.78
2023-05-07T19:25:56.282Z,98912.16
2023-05-07T19:28:23.856Z,98919.66
2023-05-07T19:30:53.602Z,98916.28
2023-05-07T19:33:20.457Z,98927.25
2023-05-07T19:35:52.035Z,98925.06
2023-05-07T19:38:18.945Z,98931.00
2023-05-07T19:40:45.914Z,98931.31
2023-05-07T19:43:13.026Z,98933.13
2023-05-07T19:45:42.866Z,98936.19
2023-05-07T19:48:10.618Z,98935.13
2023-05-07T19:50:40.840Z,98946.88
2023-05-07T19:53:07.874Z,98946.72
2023-05-07T19:55:34.895Z,98957.66
2023-05-07T19:58:01.709Z,98957.06
2023-05-07T20:00:32.171Z,98964.00
2023-05-07T20:02:59.157Z,98957.88
2023-05-07T20:05:28.057Z,98962.88
2023-05-07T20:07:55.711Z,98959.66
2023-05-07T20:10:23.108Z,98964.66
2023-05-07T20:12:49.972Z,98963.69
2023-05-07T20:15:17.090Z,98968.53
2023-05-07T20:17:44.064Z,98974.78
2023-05-07T20:20:11.815Z,98980.75
2023-05-07T20:22:39.065Z,98975.28
2023-05-07T20:25:06.885Z,98981.84
2023-05-07T20:27:37.127Z,98971.06
2023-05-07T20:30:04.777Z,98983.34
2023-05-07T20:32:31.620Z,98977.88
2023-05-07T20:34:58.546Z,98982.22
2023-05-07T20:37:26.771Z,98985.94
2023-05-07T20:39:53.714Z,98986.91
2023-05-07T20:42:20.800Z,98996.44
2023-05-07T20:44:48.196Z,98994.53
2023-05-07T20:47:16.676Z,99001.06
2023-05-07T20:49:43.681Z,99002.06
2023-05-07T20:52:10.453Z,98998.66
2023-05-07T20:54:40.253Z,99005.75
2023-05-07T20:57:07.436Z,99003.00
2023-05-07T20:59:34.882Z,99010.75
2023-05-07T21:02:03.059Z,99013.31
2023-05-07T21:04:30.888Z,99011.25
2023-05-07T21:06:58.139Z,99007.84
2023-05-07T21:09:24.984Z,99014.25
2023-05-07T21:11:52.237Z,99016.22
2023-05-07T21:14:20.221Z,99015.88
2023-05-07T21:16:47.071Z,99018.13
2023-05-07T21:19:14.157Z,99009.28
2023-05-07T21:21:43.023Z,99020.69
2023-05-07T21:24:09.896Z,99012.94
2023-05-07T21:26:39.062Z,99008.78
2023-05-07T21:29:05.852Z,99008.44
2023-05-07T21:31:32.845Z,99016.16
2023-05-07T21:33:59.616Z,99014.91
2023-05-07T21:36:27.073Z,99019.91
2023-05-07T21:38:57.021Z,99025.69
2023-05-07T21:41:23.895Z,99020.38
2023-05-07T21:43:53.766Z,99015.25
2023-05-07T21:46:21.964Z,99018.78
2023-05-07T21:48:48.810Z,99023.78
2023-05-07T21:51:15.537Z,99019.78
2023-05-07T21:53:42.418Z,99019.31
2023-05-07T21:56:09.236Z,99028.13
2023-05-07T21:58:36.044Z,99027.34
2023-05-07T22:01:03.131Z,99018.00
2023-05-07T22:03:30.425Z,99022.66
2023-05-07T22:05:57.622Z,99016.88
2023-05-07T22:08:24.584Z,99019.16
2023-05-07T22:10:51.524Z,99016.41
2023-05-07T22:13:18.335Z,99020.75
2023-05-07T22:15:56.130Z,99020.16
2023-05-07T22:18:24.590Z,99017.59
2023-05-07T22:20:52.408Z,99019.66
2023-05-07T22:23:19.259Z,99024.31
2023-05-07T22:25:46.178Z,99020.16
2023-05-07T22:28:14.684Z,99026.09
2023-05-07T22:30:41.716Z,99029.13
2023-05-07T22:33:08.658Z,99020.47
2023-05-07T22:35:35.451Z,99021.75
2023-05-07T22:38:02.337Z,99012.78
2023-05-07T22:40:30.343Z,99018.25
2023-05-07T22:42:57.230Z,99021.47
2023-05-07T22:45:24.615Z,99023.72
2023-05-07T22:47:52.128Z,99014.72
2023-05-07T22:50:19.485Z,99020.50
2023-05-07T22:52:46.505Z,99019.06
2023-05-07T22:55:15.128Z,99022.78
2023-05-07T22:57:42.029Z,99023.25
2023-05-07T23:00:10.791Z,99022.13
2023-05-07T23:02:40.882Z,99010.22
2023-05-07T23:05:08.175Z,99013.44
2023-05-07T23:07:37.752Z,99018.78
2023-05-07T23:10:05.751Z,99015.56
2023-05-07T23:12:33.683Z,99018.91
2023-05-07T23:15:00.805Z,99007.19
2023-05-07T23:17:27.860Z,99007.84
2023-05-07T23:19:55.389Z,99008.63
2023-05-07T23:22:25.324Z,99000.13
2023-05-07T23:24:52.111Z,99008.63
2023-05-07T23:27:19.173Z,99006.38
2023-05-07T23:29:46.683Z,99008.63
2023-05-07T23:32:13.505Z,99015.69
2023-05-07T23:34:40.562Z,99008.13
2023-05-07T23:37:10.277Z,99004.94
2023-05-07T23:39:37.087Z,99003.00
2023-05-07T23:42:04.208Z,99002.84
2023-05-07T23:44:31.067Z,99011.84
2023-05-07T23:46:57.877Z,99007.38
2023-05-07T23:49:24.732Z,99014.91
2023-05-07T23:51:51.559Z,99014.91
2023-05-07T23:54:18.428Z,99024.06
2023-05-07T23:56:45.470Z,99025.69
2023-05-07T23:59:12.364Z,99022.47
